sensor_id;sensor_type;location;lat;lon;timestamp;P1;durP1;ratioP1;P2;durP2;ratioP2
64601;SDS011;68371;42.630;23.192;2023-04-19T00:00:04;3.85;;;1.80;;
64601;SDS011;68371;42.630;23.192;2023-04-19T00:02:32;4.63;;;1.67;;
64601;SDS011;68371;42.630;23.192;2023-04-19T00:05:00;4.68;;;1.20;;
64601;SDS011;68371;42.630;23.192;2023-04-19T00:07:27;2.05;;;1.30;;
64601;SDS011;68371;42.630;23.192;2023-04-19T00:09:57;4.78;;;1.55;;
64601;SDS011;68371;42.630;23.192;2023-04-19T00:12:23;3.00;;;1.33;;
64601;SDS011;68371;42.630;23.192;2023-04-19T00:14:51;1.85;;;1.00;;
64601;SDS011;68371;42.630;23.192;2023-04-19T00:17:18;3.20;;;1.40;;
64601;SDS011;68371;42.630;23.192;2023-04-19T00:19:45;3.55;;;1.30;;
64601;SDS011;68371;42.630;23.192;2023-04-19T00:22:12;4.15;;;1.70;;
64601;SDS011;68371;42.630;23.192;2023-04-19T00:24:38;3.75;;;1.75;;
64601;SDS011;68371;42.630;23.192;2023-04-19T00:27:05;8.50;;;1.73;;
64601;SDS011;68371;42.630;23.192;2023-04-19T00:29:32;4.53;;;2.00;;
64601;SDS011;68371;42.630;23.192;2023-04-19T00:32:00;4.95;;;2.00;;
64601;SDS011;68371;42.630;23.192;2023-04-19T00:34:29;5.85;;;1.70;;
64601;SDS011;68371;42.630;23.192;2023-04-19T00:36:59;4.13;;;1.58;;
64601;SDS011;68371;42.630;23.192;2023-04-19T00:39:29;4.22;;;1.42;;
64601;SDS011;68371;42.630;23.192;2023-04-19T00:41:57;2.50;;;1.20;;
64601;SDS011;68371;42.630;23.192;2023-04-19T00:44:25;2.10;;;1.13;;
64601;SDS011;68371;42.630;23.192;2023-04-19T00:46:52;3.85;;;1.30;;
64601;SDS011;68371;42.630;23.192;2023-04-19T00:49:20;3.63;;;1.00;;
64601;SDS011;68371;42.630;23.192;2023-04-19T00:51:48;1.98;;;1.00;;
64601;SDS011;68371;42.630;23.192;2023-04-19T00:54:16;1.73;;;1.00;;
64601;SDS011;68371;42.630;23.192;2023-04-19T00:56:44;2.85;;;1.13;;
64601;SDS011;68371;42.630;23.192;2023-04-19T00:59:11;3.95;;;1.27;;
64601;SDS011;68371;42.630;23.192;2023-04-19T01:01:40;4.88;;;1.25;;
64601;SDS011;68371;42.630;23.192;2023-04-19T01:04:07;3.05;;;1.40;;
64601;SDS011;68371;42.630;23.192;2023-04-19T01:06:36;2.28;;;1.27;;
64601;SDS011;68371;42.630;23.192;2023-04-19T01:09:04;2.25;;;1.23;;
64601;SDS011;68371;42.630;23.192;2023-04-19T01:11:31;2.78;;;1.48;;
64601;SDS011;68371;42.630;23.192;2023-04-19T01:13:59;3.13;;;1.40;;
64601;SDS011;68371;42.630;23.192;2023-04-19T01:16:26;3.97;;;1.85;;
64601;SDS011;68371;42.630;23.192;2023-04-19T01:18:53;4.07;;;1.70;;
64601;SDS011;68371;42.630;23.192;2023-04-19T01:21:20;4.22;;;1.98;;
64601;SDS011;68371;42.630;23.192;2023-04-19T01:23:48;4.53;;;1.67;;
64601;SDS011;68371;42.630;23.192;2023-04-19T01:26:16;3.92;;;2.05;;
64601;SDS011;68371;42.630;23.192;2023-04-19T01:28:43;3.17;;;1.50;;
64601;SDS011;68371;42.630;23.192;2023-04-19T01:31:09;2.17;;;1.30;;
64601;SDS011;68371;42.630;23.192;2023-04-19T01:33:36;2.53;;;1.30;;
64601;SDS011;68371;42.630;23.192;2023-04-19T01:36:03;2.28;;;1.23;;
64601;SDS011;68371;42.630;23.192;2023-04-19T01:38:32;3.88;;;1.67;;
64601;SDS011;68371;42.630;23.192;2023-04-19T01:41:02;3.00;;;1.60;;
64601;SDS011;68371;42.630;23.192;2023-04-19T01:43:30;3.50;;;1.73;;
64601;SDS011;68371;42.630;23.192;2023-04-19T01:45:57;7.53;;;2.60;;
64601;SDS011;68371;42.630;23.192;2023-04-19T01:48:24;6.63;;;2.80;;
64601;SDS011;68371;42.630;23.192;2023-04-19T01:50:50;4.40;;;2.30;;
64601;SDS011;68371;42.630;23.192;2023-04-19T01:53:18;4.05;;;2.10;;
64601;SDS011;68371;42.630;23.192;2023-04-19T01:55:45;4.10;;;2.10;;
64601;SDS011;68371;42.630;23.192;2023-04-19T01:58:13;3.63;;;2.05;;
64601;SDS011;68371;42.630;23.192;2023-04-19T02:00:39;3.97;;;2.33;;
64601;SDS011;68371;42.630;23.192;2023-04-19T02:03:07;3.22;;;2.25;;
64601;SDS011;68371;42.630;23.192;2023-04-19T02:05:33;3.25;;;1.70;;
64601;SDS011;68371;42.630;23.192;2023-04-19T02:08:02;4.07;;;2.08;;
64601;SDS011;68371;42.630;23.192;2023-04-19T02:10:29;3.67;;;2.33;;
64601;SDS011;68371;42.630;23.192;2023-04-19T02:12:55;3.60;;;2.20;;
64601;SDS011;68371;42.630;23.192;2023-04-19T02:15:23;3.63;;;2.35;;
64601;SDS011;68371;42.630;23.192;2023-04-19T02:17:50;3.00;;;1.95;;
64601;SDS011;68371;42.630;23.192;2023-04-19T02:20:17;4.03;;;2.40;;
64601;SDS011;68371;42.630;23.192;2023-04-19T02:22:44;3.17;;;2.20;;
64601;SDS011;68371;42.630;23.192;2023-04-19T02:25:12;4.72;;;2.47;;
64601;SDS011;68371;42.630;23.192;2023-04-19T02:27:39;4.00;;;2.50;;
64601;SDS011;68371;42.630;23.192;2023-04-19T02:30:08;3.80;;;2.50;;
64601;SDS011;68371;42.630;23.192;2023-04-19T02:32:39;5.70;;;2.55;;
64601;SDS011;68371;42.630;23.192;2023-04-19T02:35:09;4.07;;;2.45;;
64601;SDS011;68371;42.630;23.192;2023-04-19T02:37:35;4.07;;;2.47;;
64601;SDS011;68371;42.630;23.192;2023-04-19T02:40:05;6.88;;;3.75;;
64601;SDS011;68371;42.630;23.192;2023-04-19T02:42:34;4.57;;;2.78;;
64601;SDS011;68371;42.630;23.192;2023-04-19T02:45:01;5.25;;;2.75;;
64601;SDS011;68371;42.630;23.192;2023-04-19T02:47:28;3.97;;;2.47;;
64601;SDS011;68371;42.630;23.192;2023-04-19T02:49:56;4.53;;;2.40;;
64601;SDS011;68371;42.630;23.192;2023-04-19T02:52:24;5.72;;;2.38;;
64601;SDS011;68371;42.630;23.192;2023-04-19T02:54:51;5.07;;;2.78;;
64601;SDS011;68371;42.630;23.192;2023-04-19T02:57:18;4.82;;;2.90;;
64601;SDS011;68371;42.630;23.192;2023-04-19T02:59:45;5.25;;;3.00;;
64601;SDS011;68371;42.630;23.192;2023-04-19T03:02:11;4.05;;;2.45;;
64601;SDS011;68371;42.630;23.192;2023-04-19T03:04:40;4.60;;;2.80;;
64601;SDS011;68371;42.630;23.192;2023-04-19T03:07:11;4.00;;;2.60;;
64601;SDS011;68371;42.630;23.192;2023-04-19T03:09:42;4.70;;;2.70;;
64601;SDS011;68371;42.630;23.192;2023-04-19T03:12:10;6.60;;;3.72;;
64601;SDS011;68371;42.630;23.192;2023-04-19T03:14:37;5.45;;;3.10;;
64601;SDS011;68371;42.630;23.192;2023-04-19T03:17:05;4.32;;;2.85;;
64601;SDS011;68371;42.630;23.192;2023-04-19T03:19:32;5.10;;;3.35;;
64601;SDS011;68371;42.630;23.192;2023-04-19T03:21:59;5.15;;;3.28;;
64601;SDS011;68371;42.630;23.192;2023-04-19T03:24:27;5.03;;;3.17;;
64601;SDS011;68371;42.630;23.192;2023-04-19T03:26:54;5.25;;;3.13;;
64601;SDS011;68371;42.630;23.192;2023-04-19T03:29:21;5.40;;;3.47;;
64601;SDS011;68371;42.630;23.192;2023-04-19T03:31:48;5.38;;;3.40;;
64601;SDS011;68371;42.630;23.192;2023-04-19T03:34:15;7.40;;;3.70;;
64601;SDS011;68371;42.630;23.192;2023-04-19T03:36:42;4.85;;;2.90;;
64601;SDS011;68371;42.630;23.192;2023-04-19T03:39:08;3.95;;;2.70;;
64601;SDS011;68371;42.630;23.192;2023-04-19T03:41:38;6.97;;;2.97;;
64601;SDS011;68371;42.630;23.192;2023-04-19T03:44:07;6.03;;;3.15;;
64601;SDS011;68371;42.630;23.192;2023-04-19T03:46:33;5.03;;;2.75;;
64601;SDS011;68371;42.630;23.192;2023-04-19T03:49:00;4.03;;;2.63;;
64601;SDS011;68371;42.630;23.192;2023-04-19T03:51:27;6.75;;;3.10;;
64601;SDS011;68371;42.630;23.192;2023-04-19T03:53:54;9.10;;;3.17;;
64601;SDS011;68371;42.630;23.192;2023-04-19T03:56:20;4.93;;;2.70;;
64601;SDS011;68371;42.630;23.192;2023-04-19T03:58:50;7.40;;;3.85;;
64601;SDS011;68371;42.630;23.192;2023-04-19T04:01:17;21.80;;;7.97;;
64601;SDS011;68371;42.630;23.192;2023-04-19T04:03:44;13.75;;;5.68;;
64601;SDS011;68371;42.630;23.192;2023-04-19T04:06:13;10.70;;;5.45;;
64601;SDS011;68371;42.630;23.192;2023-04-19T04:08:39;8.38;;;3.63;;
64601;SDS011;68371;42.630;23.192;2023-04-19T04:11:08;8.38;;;4.25;;
64601;SDS011;68371;42.630;23.192;2023-04-19T04:13:35;7.45;;;2.60;;
64601;SDS011;68371;42.630;23.192;2023-04-19T04:16:04;5.72;;;2.92;;
64601;SDS011;68371;42.630;23.192;2023-04-19T04:18:31;6.63;;;3.22;;
64601;SDS011;68371;42.630;23.192;2023-04-19T04:20:57;6.80;;;2.70;;
64601;SDS011;68371;42.630;23.192;2023-04-19T04:23:24;5.03;;;3.20;;
64601;SDS011;68371;42.630;23.192;2023-04-19T04:25:56;6.10;;;2.90;;
64601;SDS011;68371;42.630;23.192;2023-04-19T04:28:24;8.95;;;3.38;;
64601;SDS011;68371;42.630;23.192;2023-04-19T04:30:51;6.00;;;2.90;;
64601;SDS011;68371;42.630;23.192;2023-04-19T04:33:22;5.03;;;3.00;;
64601;SDS011;68371;42.630;23.192;2023-04-19T04:35:49;3.63;;;2.53;;
64601;SDS011;68371;42.630;23.192;2023-04-19T04:38:17;9.88;;;2.88;;
64601;SDS011;68371;42.630;23.192;2023-04-19T04:40:47;4.93;;;2.90;;
64601;SDS011;68371;42.630;23.192;2023-04-19T04:43:14;3.35;;;2.50;;
64601;SDS011;68371;42.630;23.192;2023-04-19T04:45:41;3.75;;;2.10;;
64601;SDS011;68371;42.630;23.192;2023-04-19T04:48:11;3.83;;;2.50;;
64601;SDS011;68371;42.630;23.192;2023-04-19T04:50:39;5.63;;;2.53;;
64601;SDS011;68371;42.630;23.192;2023-04-19T04:53:06;4.20;;;2.30;;
64601;SDS011;68371;42.630;23.192;2023-04-19T04:55:33;3.70;;;2.22;;
64601;SDS011;68371;42.630;23.192;2023-04-19T04:58:00;5.45;;;2.95;;
64601;SDS011;68371;42.630;23.192;2023-04-19T05:00:27;5.68;;;2.65;;
64601;SDS011;68371;42.630;23.192;2023-04-19T05:02:53;2.90;;;2.00;;
64601;SDS011;68371;42.630;23.192;2023-04-19T05:05:20;2.88;;;1.90;;
64601;SDS011;68371;42.630;23.192;2023-04-19T05:07:48;3.28;;;1.83;;
64601;SDS011;68371;42.630;23.192;2023-04-19T05:10:16;3.20;;;2.03;;
64601;SDS011;68371;42.630;23.192;2023-04-19T05:12:42;9.68;;;3.55;;
64601;SDS011;68371;42.630;23.192;2023-04-19T05:15:12;8.15;;;3.90;;
64601;SDS011;68371;42.630;23.192;2023-04-19T05:17:39;10.27;;;3.15;;
64601;SDS011;68371;42.630;23.192;2023-04-19T05:20:07;7.65;;;2.30;;
64601;SDS011;68371;42.630;23.192;2023-04-19T05:22:34;3.60;;;2.15;;
64601;SDS011;68371;42.630;23.192;2023-04-19T05:25:03;3.00;;;2.00;;
64601;SDS011;68371;42.630;23.192;2023-04-19T05:27:30;3.90;;;1.80;;
64601;SDS011;68371;42.630;23.192;2023-04-19T05:29:57;2.95;;;1.95;;
64601;SDS011;68371;42.630;23.192;2023-04-19T05:32:23;3.10;;;2.00;;
64601;SDS011;68371;42.630;23.192;2023-04-19T05:34:51;3.80;;;2.30;;
64601;SDS011;68371;42.630;23.192;2023-04-19T05:37:18;3.83;;;2.20;;
64601;SDS011;68371;42.630;23.192;2023-04-19T05:39:45;3.28;;;2.05;;
64601;SDS011;68371;42.630;23.192;2023-04-19T05:42:15;2.83;;;1.88;;
64601;SDS011;68371;42.630;23.192;2023-04-19T05:44:44;2.22;;;1.55;;
64601;SDS011;68371;42.630;23.192;2023-04-19T05:47:10;3.45;;;2.35;;
64601;SDS011;68371;42.630;23.192;2023-04-19T05:49:37;4.03;;;2.10;;
64601;SDS011;68371;42.630;23.192;2023-04-19T05:52:04;4.03;;;2.45;;
64601;SDS011;68371;42.630;23.192;2023-04-19T05:54:30;3.67;;;2.28;;
64601;SDS011;68371;42.630;23.192;2023-04-19T05:57:00;4.40;;;2.50;;
64601;SDS011;68371;42.630;23.192;2023-04-19T05:59:28;3.90;;;2.30;;
64601;SDS011;68371;42.630;23.192;2023-04-19T06:01:55;4.10;;;2.53;;
64601;SDS011;68371;42.630;23.192;2023-04-19T06:04:22;5.78;;;2.78;;
64601;SDS011;68371;42.630;23.192;2023-04-19T06:06:49;4.00;;;2.45;;
64601;SDS011;68371;42.630;23.192;2023-04-19T06:09:15;3.90;;;2.53;;
64601;SDS011;68371;42.630;23.192;2023-04-19T06:11:44;3.53;;;2.50;;
64601;SDS011;68371;42.630;23.192;2023-04-19T06:14:11;4.10;;;2.63;;
64601;SDS011;68371;42.630;23.192;2023-04-19T06:16:39;4.57;;;2.67;;
64601;SDS011;68371;42.630;23.192;2023-04-19T06:19:06;3.80;;;2.33;;
64601;SDS011;68371;42.630;23.192;2023-04-19T06:21:33;6.22;;;2.80;;
64601;SDS011;68371;42.630;23.192;2023-04-19T06:24:00;3.20;;;2.55;;
64601;SDS011;68371;42.630;23.192;2023-04-19T06:26:27;4.18;;;2.63;;
64601;SDS011;68371;42.630;23.192;2023-04-19T06:28:53;3.90;;;2.40;;
64601;SDS011;68371;42.630;23.192;2023-04-19T06:31:20;5.55;;;3.20;;
64601;SDS011;68371;42.630;23.192;2023-04-19T06:33:50;9.15;;;4.38;;
64601;SDS011;68371;42.630;23.192;2023-04-19T06:36:17;10.95;;;4.50;;
64601;SDS011;68371;42.630;23.192;2023-04-19T06:38:50;3.47;;;2.10;;
64601;SDS011;68371;42.630;23.192;2023-04-19T06:41:17;3.75;;;2.13;;
64601;SDS011;68371;42.630;23.192;2023-04-19T06:43:48;4.57;;;2.87;;
64601;SDS011;68371;42.630;23.192;2023-04-19T06:46:16;5.80;;;3.38;;
64601;SDS011;68371;42.630;23.192;2023-04-19T06:48:43;9.18;;;4.05;;
64601;SDS011;68371;42.630;23.192;2023-04-19T06:51:11;6.35;;;2.85;;
64601;SDS011;68371;42.630;23.192;2023-04-19T06:53:37;5.63;;;2.80;;
64601;SDS011;68371;42.630;23.192;2023-04-19T06:56:04;4.90;;;2.90;;
64601;SDS011;68371;42.630;23.192;2023-04-19T06:58:32;4.65;;;2.75;;
64601;SDS011;68371;42.630;23.192;2023-04-19T07:00:59;3.90;;;2.67;;
64601;SDS011;68371;42.630;23.192;2023-04-19T07:03:26;4.53;;;2.75;;
64601;SDS011;68371;42.630;23.192;2023-04-19T07:05:53;3.65;;;2.25;;
64601;SDS011;68371;42.630;23.192;2023-04-19T07:08:23;2.67;;;1.88;;
64601;SDS011;68371;42.630;23.192;2023-04-19T07:10:51;4.22;;;2.13;;
64601;SDS011;68371;42.630;23.192;2023-04-19T07:13:18;2.80;;;2.00;;
64601;SDS011;68371;42.630;23.192;2023-04-19T07:15:47;4.57;;;2.60;;
64601;SDS011;68371;42.630;23.192;2023-04-19T07:18:13;4.10;;;2.45;;
64601;SDS011;68371;42.630;23.192;2023-04-19T07:20:40;5.10;;;3.33;;
64601;SDS011;68371;42.630;23.192;2023-04-19T07:23:09;4.95;;;3.13;;
64601;SDS011;68371;42.630;23.192;2023-04-19T07:25:37;3.40;;;2.20;;
64601;SDS011;68371;42.630;23.192;2023-04-19T07:28:04;3.60;;;2.30;;
64601;SDS011;68371;42.630;23.192;2023-04-19T07:30:30;4.07;;;2.55;;
64601;SDS011;68371;42.630;23.192;2023-04-19T07:32:57;3.88;;;2.30;;
64601;SDS011;68371;42.630;23.192;2023-04-19T07:35:24;3.35;;;2.10;;
64601;SDS011;68371;42.630;23.192;2023-04-19T07:37:53;4.40;;;2.60;;
64601;SDS011;68371;42.630;23.192;2023-04-19T07:40:19;6.35;;;3.03;;
64601;SDS011;68371;42.630;23.192;2023-04-19T07:42:49;3.72;;;2.30;;
64601;SDS011;68371;42.630;23.192;2023-04-19T07:45:18;3.67;;;2.30;;
64601;SDS011;68371;42.630;23.192;2023-04-19T07:47:45;2.72;;;1.77;;
64601;SDS011;68371;42.630;23.192;2023-04-19T07:50:12;2.83;;;1.80;;
64601;SDS011;68371;42.630;23.192;2023-04-19T07:52:39;3.70;;;2.10;;
64601;SDS011;68371;42.630;23.192;2023-04-19T07:55:06;3.72;;;1.95;;
64601;SDS011;68371;42.630;23.192;2023-04-19T07:57:33;4.10;;;2.40;;
64601;SDS011;68371;42.630;23.192;2023-04-19T08:00:02;4.05;;;1.77;;
64601;SDS011;68371;42.630;23.192;2023-04-19T08:02:29;2.63;;;1.70;;
64601;SDS011;68371;42.630;23.192;2023-04-19T08:04:56;3.03;;;2.05;;
64601;SDS011;68371;42.630;23.192;2023-04-19T08:07:24;2.30;;;1.60;;
64601;SDS011;68371;42.630;23.192;2023-04-19T08:09:51;3.72;;;2.13;;
64601;SDS011;68371;42.630;23.192;2023-04-19T08:12:19;3.20;;;1.83;;
64601;SDS011;68371;42.630;23.192;2023-04-19T08:14:46;2.83;;;1.77;;
64601;SDS011;68371;42.630;23.192;2023-04-19T08:17:14;4.97;;;1.65;;
64601;SDS011;68371;42.630;23.192;2023-04-19T08:19:44;2.60;;;1.50;;
64601;SDS011;68371;42.630;23.192;2023-04-19T08:22:11;2.97;;;2.05;;
64601;SDS011;68371;42.630;23.192;2023-04-19T08:24:38;4.88;;;2.03;;
64601;SDS011;68371;42.630;23.192;2023-04-19T08:27:05;2.97;;;1.58;;
64601;SDS011;68371;42.630;23.192;2023-04-19T08:29:31;3.63;;;1.95;;
64601;SDS011;68371;42.630;23.192;2023-04-19T08:31:58;2.88;;;1.67;;
64601;SDS011;68371;42.630;23.192;2023-04-19T08:34:27;3.65;;;2.10;;
64601;SDS011;68371;42.630;23.192;2023-04-19T08:36:57;3.53;;;1.90;;
64601;SDS011;68371;42.630;23.192;2023-04-19T08:39:25;3.72;;;2.10;;
64601;SDS011;68371;42.630;23.192;2023-04-19T08:41:52;3.33;;;2.05;;
64601;SDS011;68371;42.630;23.192;2023-04-19T08:44:22;2.88;;;1.90;;
64601;SDS011;68371;42.630;23.192;2023-04-19T08:46:52;6.78;;;3.70;;
64601;SDS011;68371;42.630;23.192;2023-04-19T08:49:21;5.35;;;3.08;;
64601;SDS011;68371;42.630;23.192;2023-04-19T08:51:49;3.47;;;1.90;;
64601;SDS011;68371;42.630;23.192;2023-04-19T08:54:17;3.55;;;2.13;;
64601;SDS011;68371;42.630;23.192;2023-04-19T08:56:45;2.95;;;2.03;;
64601;SDS011;68371;42.630;23.192;2023-04-19T08:59:11;2.97;;;1.90;;
64601;SDS011;68371;42.630;23.192;2023-04-19T09:01:38;4.65;;;2.38;;
64601;SDS011;68371;42.630;23.192;2023-04-19T09:04:05;3.25;;;2.13;;
64601;SDS011;68371;42.630;23.192;2023-04-19T09:06:34;2.67;;;1.70;;
64601;SDS011;68371;42.630;23.192;2023-04-19T09:09:13;2.72;;;1.67;;
64601;SDS011;68371;42.630;23.192;2023-04-19T09:11:41;4.15;;;1.88;;
64601;SDS011;68371;42.630;23.192;2023-04-19T09:14:08;3.50;;;2.03;;
64601;SDS011;68371;42.630;23.192;2023-04-19T09:16:36;3.72;;;2.50;;
64601;SDS011;68371;42.630;23.192;2023-04-19T09:19:04;3.42;;;1.88;;
64601;SDS011;68371;42.630;23.192;2023-04-19T09:21:33;2.38;;;1.60;;
64601;SDS011;68371;42.630;23.192;2023-04-19T09:24:00;3.35;;;2.30;;
64601;SDS011;68371;42.630;23.192;2023-04-19T09:26:29;3.20;;;1.85;;
64601;SDS011;68371;42.630;23.192;2023-04-19T09:28:56;2.53;;;1.90;;
64601;SDS011;68371;42.630;23.192;2023-04-19T09:31:26;3.13;;;1.83;;
64601;SDS011;68371;42.630;23.192;2023-04-19T09:33:53;4.57;;;1.60;;
64601;SDS011;68371;42.630;23.192;2023-04-19T09:36:26;2.75;;;1.60;;
64601;SDS011;68371;42.630;23.192;2023-04-19T09:38:55;2.88;;;1.60;;
64601;SDS011;68371;42.630;23.192;2023-04-19T09:41:22;3.03;;;1.98;;
64601;SDS011;68371;42.630;23.192;2023-04-19T09:43:52;3.28;;;1.92;;
64601;SDS011;68371;42.630;23.192;2023-04-19T09:46:30;2.33;;;1.60;;
64601;SDS011;68371;42.630;23.192;2023-04-19T09:49:20;2.65;;;1.58;;
64601;SDS011;68371;42.630;23.192;2023-04-19T09:51:49;3.47;;;1.58;;
64601;SDS011;68371;42.630;23.192;2023-04-19T09:54:17;2.55;;;1.42;;
64601;SDS011;68371;42.630;23.192;2023-04-19T09:56:45;2.88;;;1.63;;
64601;SDS011;68371;42.630;23.192;2023-04-19T09:59:14;2.42;;;1.10;;
64601;SDS011;68371;42.630;23.192;2023-04-19T10:01:42;2.30;;;1.50;;
64601;SDS011;68371;42.630;23.192;2023-04-19T10:04:10;4.47;;;1.40;;
64601;SDS011;68371;42.630;23.192;2023-04-19T10:06:38;2.30;;;1.52;;
64601;SDS011;68371;42.630;23.192;2023-04-19T10:09:06;2.53;;;1.60;;
64601;SDS011;68371;42.630;23.192;2023-04-19T10:11:35;3.17;;;1.45;;
64601;SDS011;68371;42.630;23.192;2023-04-19T10:14:04;2.45;;;1.27;;
64601;SDS011;68371;42.630;23.192;2023-04-19T10:16:34;2.78;;;1.67;;
64601;SDS011;68371;42.630;23.192;2023-04-19T10:19:03;2.90;;;1.50;;
64601;SDS011;68371;42.630;23.192;2023-04-19T10:21:33;2.75;;;1.58;;
64601;SDS011;68371;42.630;23.192;2023-04-19T10:24:01;2.33;;;1.50;;
64601;SDS011;68371;42.630;23.192;2023-04-19T10:26:29;2.47;;;1.50;;
64601;SDS011;68371;42.630;23.192;2023-04-19T10:28:56;2.20;;;1.55;;
64601;SDS011;68371;42.630;23.192;2023-04-19T10:31:24;4.35;;;1.80;;
64601;SDS011;68371;42.630;23.192;2023-04-19T10:33:54;2.22;;;1.30;;
64601;SDS011;68371;42.630;23.192;2023-04-19T10:36:28;1.70;;;1.10;;
64601;SDS011;68371;42.630;23.192;2023-04-19T10:38:58;2.33;;;1.20;;
64601;SDS011;68371;42.630;23.192;2023-04-19T10:44:27;1.60;;;0.98;;
64601;SDS011;68371;42.630;23.192;2023-04-19T10:46:54;2.10;;;1.10;;
64601;SDS011;68371;42.630;23.192;2023-04-19T10:49:25;1.98;;;1.35;;
64601;SDS011;68371;42.630;23.192;2023-04-19T10:51:54;2.20;;;1.05;;
64601;SDS011;68371;42.630;23.192;2023-04-19T10:54:29;2.35;;;1.10;;
64601;SDS011;68371;42.630;23.192;2023-04-19T10:57:00;4.70;;;1.55;;
64601;SDS011;68371;42.630;23.192;2023-04-19T10:59:29;4.15;;;1.80;;
64601;SDS011;68371;42.630;23.192;2023-04-19T11:02:00;5.30;;;2.28;;
64601;SDS011;68371;42.630;23.192;2023-04-19T11:07:36;3.25;;;1.40;;
64601;SDS011;68371;42.630;23.192;2023-04-19T11:10:05;2.58;;;1.70;;
64601;SDS011;68371;42.630;23.192;2023-04-19T11:12:33;2.28;;;1.35;;
64601;SDS011;68371;42.630;23.192;2023-04-19T11:15:00;2.60;;;1.33;;
64601;SDS011;68371;42.630;23.192;2023-04-19T11:17:29;2.78;;;1.63;;
64601;SDS011;68371;42.630;23.192;2023-04-19T11:19:57;2.65;;;1.63;;
64601;SDS011;68371;42.630;23.192;2023-04-19T11:22:29;5.45;;;2.35;;
64601;SDS011;68371;42.630;23.192;2023-04-19T11:25:03;2.63;;;1.73;;
64601;SDS011;68371;42.630;23.192;2023-04-19T11:27:31;3.10;;;2.00;;
64601;SDS011;68371;42.630;23.192;2023-04-19T11:30:05;3.10;;;1.45;;
64601;SDS011;68371;42.630;23.192;2023-04-19T11:32:33;2.53;;;1.70;;
64601;SDS011;68371;42.630;23.192;2023-04-19T11:35:04;9.82;;;4.53;;
64601;SDS011;68371;42.630;23.192;2023-04-19T11:37:33;6.25;;;1.98;;
64601;SDS011;68371;42.630;23.192;2023-04-19T11:40:00;2.13;;;1.45;;
64601;SDS011;68371;42.630;23.192;2023-04-19T11:42:27;14.27;;;5.97;;
64601;SDS011;68371;42.630;23.192;2023-04-19T11:44:56;13.95;;;6.20;;
64601;SDS011;68371;42.630;23.192;2023-04-19T11:47:25;3.22;;;1.83;;
64601;SDS011;68371;42.630;23.192;2023-04-19T11:49:53;11.60;;;5.45;;
64601;SDS011;68371;42.630;23.192;2023-04-19T11:52:22;3.00;;;2.10;;
64601;SDS011;68371;42.630;23.192;2023-04-19T11:54:50;2.67;;;1.42;;
64601;SDS011;68371;42.630;23.192;2023-04-19T11:57:25;1.90;;;1.02;;
64601;SDS011;68371;42.630;23.192;2023-04-19T12:00:03;2.28;;;1.27;;
64601;SDS011;68371;42.630;23.192;2023-04-19T12:02:36;2.15;;;1.40;;
64601;SDS011;68371;42.630;23.192;2023-04-19T12:05:07;2.45;;;0.88;;
64601;SDS011;68371;42.630;23.192;2023-04-19T12:10:09;1.58;;;0.90;;
64601;SDS011;68371;42.630;23.192;2023-04-19T12:12:36;1.20;;;0.70;;
64601;SDS011;68371;42.630;23.192;2023-04-19T12:15:04;1.77;;;0.80;;
64601;SDS011;68371;42.630;23.192;2023-04-19T12:17:31;2.75;;;0.93;;
64601;SDS011;68371;42.630;23.192;2023-04-19T12:19:58;1.30;;;0.98;;
64601;SDS011;68371;42.630;23.192;2023-04-19T12:22:28;1.50;;;1.10;;
64601;SDS011;68371;42.630;23.192;2023-04-19T12:24:58;1.88;;;1.17;;
64601;SDS011;68371;42.630;23.192;2023-04-19T12:27:24;2.80;;;1.20;;
64601;SDS011;68371;42.630;23.192;2023-04-19T12:29:51;2.50;;;1.60;;
64601;SDS011;68371;42.630;23.192;2023-04-19T12:32:18;3.25;;;1.90;;
64601;SDS011;68371;42.630;23.192;2023-04-19T12:34:44;4.03;;;2.78;;
64601;SDS011;68371;42.630;23.192;2023-04-19T12:37:11;5.20;;;2.47;;
64601;SDS011;68371;42.630;23.192;2023-04-19T12:39:38;3.83;;;2.30;;
64601;SDS011;68371;42.630;23.192;2023-04-19T12:42:06;3.67;;;2.20;;
64601;SDS011;68371;42.630;23.192;2023-04-19T12:44:32;4.22;;;2.10;;
64601;SDS011;68371;42.630;23.192;2023-04-19T12:46:59;4.10;;;2.40;;
64601;SDS011;68371;42.630;23.192;2023-04-19T12:49:28;8.70;;;3.97;;
64601;SDS011;68371;42.630;23.192;2023-04-19T12:51:54;58.10;;;21.95;;
64601;SDS011;68371;42.630;23.192;2023-04-19T12:54:21;37.97;;;15.38;;
64601;SDS011;68371;42.630;23.192;2023-04-19T12:56:48;6.22;;;3.95;;
64601;SDS011;68371;42.630;23.192;2023-04-19T12:59:16;5.82;;;3.78;;
64601;SDS011;68371;42.630;23.192;2023-04-19T13:01:43;4.72;;;2.75;;
64601;SDS011;68371;42.630;23.192;2023-04-19T13:04:09;5.15;;;3.03;;
64601;SDS011;68371;42.630;23.192;2023-04-19T13:06:37;6.70;;;3.88;;
64601;SDS011;68371;42.630;23.192;2023-04-19T13:09:04;7.38;;;4.60;;
64601;SDS011;68371;42.630;23.192;2023-04-19T13:11:32;5.47;;;3.80;;
64601;SDS011;68371;42.630;23.192;2023-04-19T13:14:00;5.93;;;3.95;;
64601;SDS011;68371;42.630;23.192;2023-04-19T13:16:28;7.90;;;4.80;;
64601;SDS011;68371;42.630;23.192;2023-04-19T13:18:55;9.52;;;5.05;;
64601;SDS011;68371;42.630;23.192;2023-04-19T13:21:22;7.00;;;4.03;;
64601;SDS011;68371;42.630;23.192;2023-04-19T13:23:48;7.65;;;4.97;;
64601;SDS011;68371;42.630;23.192;2023-04-19T13:26:15;8.52;;;5.60;;
64601;SDS011;68371;42.630;23.192;2023-04-19T13:28:42;12.38;;;7.07;;
64601;SDS011;68371;42.630;23.192;2023-04-19T13:31:09;11.10;;;6.93;;
64601;SDS011;68371;42.630;23.192;2023-04-19T13:33:37;14.13;;;9.32;;
64601;SDS011;68371;42.630;23.192;2023-04-19T13:36:07;10.20;;;6.43;;
64601;SDS011;68371;42.630;23.192;2023-04-19T13:38:35;7.82;;;3.60;;
64601;SDS011;68371;42.630;23.192;2023-04-19T13:41:02;4.90;;;2.40;;
64601;SDS011;68371;42.630;23.192;2023-04-19T13:43:32;5.20;;;3.70;;
64601;SDS011;68371;42.630;23.192;2023-04-19T13:45:58;10.88;;;6.93;;
64601;SDS011;68371;42.630;23.192;2023-04-19T13:48:25;8.77;;;5.32;;
64601;SDS011;68371;42.630;23.192;2023-04-19T13:50:54;5.80;;;3.00;;
64601;SDS011;68371;42.630;23.192;2023-04-19T13:53:22;6.47;;;3.60;;
64601;SDS011;68371;42.630;23.192;2023-04-19T13:55:49;8.30;;;5.50;;
64601;SDS011;68371;42.630;23.192;2023-04-19T13:58:16;9.38;;;5.38;;
64601;SDS011;68371;42.630;23.192;2023-04-19T14:00:43;5.50;;;2.90;;
64601;SDS011;68371;42.630;23.192;2023-04-19T14:03:09;5.65;;;3.63;;
64601;SDS011;68371;42.630;23.192;2023-04-19T14:05:36;6.43;;;2.50;;
64601;SDS011;68371;42.630;23.192;2023-04-19T14:08:06;5.50;;;4.03;;
64601;SDS011;68371;42.630;23.192;2023-04-19T14:10:33;7.20;;;3.67;;
64601;SDS011;68371;42.630;23.192;2023-04-19T14:13:02;8.30;;;4.80;;
64601;SDS011;68371;42.630;23.192;2023-04-19T14:15:29;7.40;;;4.28;;
64601;SDS011;68371;42.630;23.192;2023-04-19T14:17:56;9.95;;;5.63;;
64601;SDS011;68371;42.630;23.192;2023-04-19T14:20:22;6.75;;;3.78;;
64601;SDS011;68371;42.630;23.192;2023-04-19T14:22:49;9.13;;;4.78;;
64601;SDS011;68371;42.630;23.192;2023-04-19T14:25:17;5.13;;;3.22;;
64601;SDS011;68371;42.630;23.192;2023-04-19T14:27:44;5.25;;;3.55;;
64601;SDS011;68371;42.630;23.192;2023-04-19T14:30:11;4.75;;;3.33;;
64601;SDS011;68371;42.630;23.192;2023-04-19T14:32:38;21.85;;;10.23;;
64601;SDS011;68371;42.630;23.192;2023-04-19T14:35:05;5.63;;;3.17;;
64601;SDS011;68371;42.630;23.192;2023-04-19T14:37:35;8.10;;;4.20;;
64601;SDS011;68371;42.630;23.192;2023-04-19T14:40:04;8.00;;;4.15;;
64601;SDS011;68371;42.630;23.192;2023-04-19T14:42:34;15.38;;;6.45;;
64601;SDS011;68371;42.630;23.192;2023-04-19T14:45:03;9.32;;;4.78;;